Terminal Aerodrome Forecast
Issued by NWS Sterling, VA

Current Version | Previous Version | Text Only | Print | Product List | Glossary On
Versions: 1 2 3 4 5 6 7 8 9 10 11 12 13 14 15 16 17 18 19 20 21 22 23
000
FTUS41 KLWX 200800 AAA
TAFIAD
TAF AMD
KIAD 200859Z 2009/2112 VRB03KT P6SM SCT015 BKN050
     FM201000 VRB03KT P6SM BKN015
     FM201400 17004KT P6SM BKN050
     FM210600 VRB03KT P6SM OVC015=

USA.gov is the U.S. government's official web portal to all federal, state and local government web resources and services.